LIBN

Lecce Galatina Air Base Airport

Italy
TAF LIBN 251400Z 2515/2524 36020KT CAVOK TEMPO 2515/2524 36020G30KT
Issued Valid From Valid To
Sep-25 @ 14:00 UTC
(4 hours ago)
Sep-25 @ 15:00 UTC
(3 hours ago)
Sep-26 @ 00:00 UTC
(in 6 hours)
Sep-25 @ 15:00 to Sep-26 @ 00:00
TAF LIBN 251400Z 2515/2524 36020KT CAVOK
Wind Visibility Clouds Conditions
360° at 20 knots 10,000+ meters
  • No significant clouds
Temporary Sep-25 @ 15:00 to Sep-26 @ 00:00
TEMPO 2515/2524 36020G30KT
Wind
360° at 20 knots
 Gusting to 30 knots
TAF LIBN 251400Z 2515/2524 36020KT CAVOK TEMPO 2515/2524 36020G30KT
Issued Sep-25 @ 14:00 UTC
(4 hours ago)
Valid From Sep-25 @ 15:00 UTC
(3 hours ago)
Valid To Sep-26 @ 00:00 UTC
(in 6 hours)
Sep-25 @ 15:00 - Sep-26 @ 00:00
Wind Visibility
360° at 20 knots 10,000+ meters
Clouds
  • No significant clouds
Conditions
Temporary Sep-25 @ 15:00 - Sep-26 @ 00:00
Wind
360° at 20 knots
 Gusting to 30 knots